仁川国際空港の過去48時間の天気

仁川国際空港 (Incheon International Airport)

現在時刻: 7/18 23:03 KST (7/18 14:03 UTC) 以下の時間は現地時間です。

過去48時間のMETAR気象情報
時間 風向 風速(m/s) 視程 気温(℃) 湿度(%) 気圧(hPa) 天気現象
18 22:30 西 2 6000m 23 69 1008
18 22:00 西 2 5000m 23 69 1008 煙霧
18 21:30 西南西 2 6000m 23 65 1008
18 21:00 西南西 4 6000m 23 65 1008
18 20:30 西南西 5 6000m 23 65 1008
18 20:00 南西 4 6000m 24 65 1007
18 19:30 西 3 7000m 26 58 1007
18 19:00 北西 3 7000m 27 54 1007
18 18:30 西北西 3 7000m 28 48 1007
18 18:00 西北西 4 7000m 29 45 1007
18 17:30 北西 4 7000m 29 48 1007
18 17:00 西北西 4 8000m 29 48 1007
18 16:30 西 5 8000m 29 48 1007
18 16:00 西北西 5 8000m 29 48 1007
18 15:30 西 4 8000m 30 46 1007
18 15:00 西 5 8000m 30 46 1007
18 14:30 西 5 8000m 30 49 1008
18 14:00 西北西 5 8000m 30 49 1008
18 13:30 西北西 4 8000m 31 46 1008
18 13:00 西北西 4 8000m 29 52 1008
18 12:30 北西 3 7000m 29 52 1009
18 12:00 北北西 4 7000m 29 48 1009
18 11:30 北西 3 7000m 28 51 1009
18 11:00 2 7000m 28 51 1009
18 10:30 南南東 3 7000m 28 55 1009
18 10:00 2 7000m 27 58 1010
18 09:30 2 7000m 26 58 1009
18 09:00 3 7000m 26 58 1010
18 08:30 南南東 3 6000m 25 65 1010
18 08:00 東南東 1 4200m 24 74 1010 もや
18 07:30 北北西 2 4000m 23 73 1010 もや
18 07:00 北北西 2 4000m 24 69 1010 もや
18 06:30 1 3500m 22 78 1010 もや
18 06:00 西北西 1 3500m 22 78 1010 もや
18 05:30 南西 4 3500m 22 78 1010 もや
18 05:00 南南西 3 3500m 23 78 1010 もや
18 04:30 1 4000m 23 73 1010 もや
18 04:00 北西 1 4000m 23 73 1010 もや
18 03:30 北北東 2 4000m 23 73 1010 もや
18 03:00 北北東 1 4500m 23 73 1010 もや
18 02:30 北東 2 4500m 23 73 1010 煙霧
18 02:00 北東 2 4800m 23 73 1010 煙霧
18 01:30 1 4800m 23 73 1010 煙霧
18 01:00 北北西 1 4500m 23 73 1010 煙霧
18 00:30 北西 2 4500m 23 73 1010 煙霧
18 00:00 北西 3 5000m 23 73 1010 煙霧
17 23:30 北北西 1 6000m 23 69 1010
17 23:00 西北西 2 6000m 24 65 1011
17 22:30 北西 2 4500m 24 65 1011 煙霧
17 22:00 西北西 2 4500m 24 65 1011 煙霧
17 21:30 北西 3 4000m 23 73 1010 煙霧
17 21:00 北北西 3 4500m 24 65 1010 煙霧
17 20:30 北北西 2 4500m 24 65 1010 煙霧
17 20:00 北北西 1 4500m 24 69 1010 煙霧
17 19:30 北西 2 4500m 24 65 1010 煙霧
17 19:00 西北西 3 4500m 25 61 1010 煙霧
17 18:30 西北西 3 5000m 25 61 1010 煙霧
17 18:00 北西 3 5000m 25 65 1010 煙霧
17 17:30 北西 4 5000m 26 61 1010 煙霧
17 17:00 北北西 3 5000m 27 58 1010 煙霧
17 16:30 北西 4 5000m 27 54 1010 煙霧
17 16:00 北西 5 5000m 27 58 1010 煙霧
17 15:30 北北西 4 5000m 26 61 1010 煙霧
17 15:00 北北西 4 4500m 27 62 1010 煙霧
17 14:30 北北西 4 4800m 28 58 1011 煙霧
17 14:00 西北西 3 4800m 28 55 1011 煙霧
17 13:30 北西 3 4500m 26 65 1011 煙霧
17 13:00 西北西 3 4500m 26 65 1012 煙霧
17 12:30 西北西 4 4500m 26 65 1012 煙霧
17 12:00 西北西 3 4500m 27 62 1012 煙霧
17 11:30 西北西 4 3500m 26 65 1012 煙霧
17 11:00 西北西 4 3500m 26 65 1012 煙霧
17 10:30 西 2 3500m 26 65 1012 煙霧
17 10:00 西 2 3500m 25 65 1012 煙霧
17 09:30 2 3200m 25 69 1012 煙霧
17 09:00 1 2200m 25 69 1012 もや
17 08:30 1 2200m 24 74 1012 もや
17 08:00 北東 2 2200m 23 83 1011 もや
17 07:30 北東 3 2200m 22 88 1012 もや
17 07:00 東北東 3 2200m 22 88 1011 もや
17 06:30 北東 1 1400m 22 88 1012 もや
17 06:00 1 400m 21 88 1012
17 05:30 北北東 2 100m 21 88 1012
17 05:00 北北西 1 200m 21 88 1012
17 04:30 西北西 2 300m 21 88 1012
17 04:00 北北西 2 600m 21 83 1012
17 03:30 北北西 2 2300m 21 88 1011 部分霧
17 03:00 西 1 2300m 22 83 1012 部分霧
17 02:30 西北西 1 2800m 22 83 1011 もや
17 02:00 西 2 2800m 22 83 1011 もや
17 01:30 西 2 3000m 22 83 1012 もや
17 01:00 西 2 3200m 23 78 1012 もや
17 00:30 北北西 2 3200m 23 78 1012 もや
17 00:00 北北西 1 3500m 23 78 1012 もや
16 23:30 西北西 2 3200m 23 78 1012 もや
RKSI 181330Z 26003KT 210V330 6000 NSC 23/17 Q1008 NOSIG
RKSI 181300Z 27004KT 5000 HZ NSC 23/17 Q1008 NOSIG
RKSI 181230Z 25004KT 220V310 6000 FEW040 SCT200 23/16 Q1008 NOSIG
RKSI 181200Z 25007KT 6000 FEW040 SCT200 23/16 Q1008 NOSIG
RKSI 181130Z 25009KT 6000 FEW040 BKN200 23/16 Q1008 NOSIG
RKSI 181100Z 23008KT 6000 FEW040 BKN200 24/17 Q1007 NOSIG
RKSI 181030Z 28005KT 230V320 7000 NSC 26/17 Q1007 NOSIG
RKSI 181000Z 32005KT 7000 NSC 27/17 Q1007 NOSIG
RKSI 180930Z 30006KT 250V320 7000 NSC 28/16 Q1007 NOSIG
RKSI 180900Z 30007KT 7000 NSC 29/16 Q1007 NOSIG
RKSI 180830Z 31007KT 7000 NSC 29/17 Q1007 NOSIG
RKSI 180800Z 30007KT 8000 FEW040 29/17 Q1007 NOSIG
RKSI 180730Z 28009KT 8000 FEW040 29/17 Q1007 NOSIG
RKSI 180700Z 29010KT 8000 FEW040 29/17 Q1007 NOSIG
RKSI 180630Z 28008KT 260V320 8000 FEW040 30/17 Q1007 NOSIG
RKSI 180600Z 28010KT 8000 FEW040 30/17 Q1007 NOSIG
RKSI 180530Z 28009KT 250V310 8000 FEW040 SCT160 30/18 Q1008 NOSIG
RKSI 180500Z 29009KT 260V320 8000 FEW030 SCT160 30/18 Q1008 NOSIG
RKSI 180430Z 30007KT 260V330 8000 FEW030 SCT160 31/18 Q1008 NOSIG
RKSI 180400Z 30008KT 270V330 8000 FEW030 SCT160 29/18 Q1008 NOSIG
RKSI 180330Z 32006KT 290V360 7000 FEW040 SCT160 29/18 Q1009 NOSIG
RKSI 180300Z 34007KT 7000 FEW040 SCT120 29/17 Q1009 NOSIG
RKSI 180230Z 31005KT 7000 FEW040 28/17 Q1009 NOSIG
RKSI 180200Z 19004KT 110V250 7000 FEW040 28/17 Q1009 NOSIG
RKSI 180130Z 15005KT 7000 FEW040 28/18 Q1009 NOSIG
RKSI 180100Z 19004KT 110V260 7000 FEW040 27/18 Q1010 NOSIG
RKSI 180030Z 19004KT 120V290 7000 NSC 26/17 Q1009 NOSIG
RKSI 180000Z 18005KT 140V220 7000 FEW040 26/17 Q1010 NOSIG
RKSI 172330Z 16005KT 110V200 6000 FEW040 SCT200 25/18 Q1010 NOSIG
RKSI 172300Z 12002KT 4200 BR FEW045 BKN200 24/19 Q1010 NOSIG
RKSI 172230Z 34003KT 4000 BR FEW045 BKN200 23/18 Q1010 NOSIG
RKSI 172200Z 33004KT 290V350 4000 BR FEW045 BKN200 24/18 Q1010 NOSIG
RKSI 172130Z 01001KT 3500 BR FEW035 BKN200 22/18 Q1010 NOSIG
RKSI 172100Z 29002KT 3500 BR FEW035 BKN200 22/18 Q1010 NOSIG
RKSI 172030Z 23007KT 3500 BR FEW035 BKN200 22/18 Q1010 NOSIG
RKSI 172000Z 21005KT 160V250 3500 BR FEW035 BKN200 23/19 Q1010 NOSIG
RKSI 171930Z 17001KT 4000 BR SCT035 BKN200 23/18 Q1010 NOSIG
RKSI 171900Z 32002KT 4000 BR SCT035 BKN200 23/18 Q1010 NOSIG
RKSI 171830Z 03003KT 350V050 4000 BR FEW035 BKN200 23/18 Q1010 NOSIG
RKSI 171800Z 03002KT 4500 BR FEW040 BKN200 23/18 Q1010 NOSIG
RKSI 171730Z 04004KT 4500 HZ FEW040 BKN200 23/18 Q1010 NOSIG
RKSI 171700Z 05003KT 4800 HZ FEW045 BKN200 23/18 Q1010 NOSIG
RKSI 171630Z 36001KT 4800 HZ FEW045 BKN200 23/18 Q1010 NOSIG
RKSI 171600Z 34002KT 4500 HZ NSC 23/18 Q1010 NOSIG
RKSI 171530Z 32003KT 4500 HZ NSC 23/18 Q1010 NOSIG
RKSI 171500Z 32005KT 5000 HZ FEW045 BKN180 23/18 Q1010 NOSIG
RKSI 171430Z 34002KT 6000 FEW045 BKN180 23/17 Q1010 NOSIG
RKSI 171400Z 29003KT 6000 FEW045 BKN180 24/17 Q1011 NOSIG
RKSI 171330Z 32003KT 4500 HZ FEW045 BKN180 24/17 Q1011 NOSIG
RKSI 171300Z 30004KT 4500 HZ NSC 24/17 Q1011 NOSIG
RKSI 171230Z 32005KT 4000 HZ NSC 23/18 Q1010 NOSIG
RKSI 171200Z 33005KT 4500 HZ NSC 24/17 Q1010 NOSIG
RKSI 171130Z 33004KT 4500 HZ NSC 24/17 Q1010 NOSIG
RKSI 171100Z 33002KT 4500 HZ NSC 24/18 Q1010 NOSIG
RKSI 171030Z 32004KT 4500 HZ NSC 24/17 Q1010 NOSIG
RKSI 171000Z 30005KT 4500 HZ NSC 25/17 Q1010 NOSIG
RKSI 170930Z 30005KT 5000 HZ NSC 25/17 Q1010 NOSIG
RKSI 170900Z 31006KT 5000 HZ NSC 25/18 Q1010 NOSIG
RKSI 170830Z 32007KT 5000 HZ NSC 26/18 Q1010 NOSIG
RKSI 170800Z 33005KT 300V360 5000 HZ FEW030 BKN180 27/18 Q1010 NOSIG
RKSI 170730Z 31008KT 5000 HZ FEW030 BKN180 27/17 Q1010 NOSIG
RKSI 170700Z 32009KT 5000 HZ FEW030 BKN180 27/18 Q1010 NOSIG
RKSI 170630Z 33008KT 5000 HZ FEW030 BKN180 26/18 Q1010 NOSIG
RKSI 170600Z 34008KT 4500 HZ FEW030 BKN180 27/19 Q1010 NOSIG
RKSI 170530Z 34008KT 4800 HZ FEW030 BKN180 28/19 Q1011 NOSIG
RKSI 170500Z 29005KT 240V350 4800 HZ FEW030 BKN180 28/18 Q1011 NOSIG
RKSI 170430Z 32005KT 290V350 4500 HZ FEW030 BKN180 26/19 Q1011 NOSIG
RKSI 170400Z 30005KT 270V330 4500 HZ SCT030 BKN180 26/19 Q1012 NOSIG
RKSI 170330Z 30007KT 4500 HZ SCT030 BKN180 26/19 Q1012 NOSIG
RKSI 170300Z 29006KT 260V320 4500 HZ SCT030 BKN180 27/19 Q1012 NOSIG
RKSI 170230Z 29007KT 260V320 3500 HZ FEW015 SCT025 BKN180 26/19 Q1012 NOSIG
RKSI 170200Z 30007KT 240V360 3500 HZ FEW015 SCT025 BKN180 26/19 Q1012 NOSIG
RKSI 170130Z 27004KT 3500 HZ FEW015 SCT025 BKN180 26/19 Q1012 NOSIG
RKSI 170100Z 28004KT 200V320 3500 HZ FEW015 SCT025 BKN180 25/18 Q1012 NOSIG
RKSI 170030Z 17004KT 120V230 3200 HZ FEW015 BKN180 25/19 Q1012 NOSIG
RKSI 170000Z 19002KT 2200 BR FEW010 BKN180 25/19 Q1012 NOSIG
RKSI 162330Z 10002KT 2200 BR FEW005 BKN180 24/19 Q1012 NOSIG
RKSI 162300Z 04004KT 2200 BR FEW005 BKN180 23/20 Q1011 NOSIG
RKSI 162230Z 05005KT 2200 BR FEW005 BKN180 22/20 Q1012 NOSIG
RKSI 162200Z 06005KT 2200 BR FEW005 BKN180 22/20 Q1011 NOSIG
RKSI 162130Z 04002KT 1400 R15L/P2000N R15R/P2000N R16/P2000N BR FEW005 BKN180 22/20 Q1012 BECMG 2000
RKSI 162100Z 01002KT 0400 R15L/P2000N R15R/1600U R16/0450U FG FEW002 BKN180 21/19 Q1012 NOSIG
RKSI 162030Z 02003KT 350V070 0100 R33R/0225N R33L/0200N R34/0650D FG FEW001 BKN180 21/19 Q1012 NOSIG
RKSI 162000Z 33002KT 0200 R33R/0225N R33L/0275D R34/0250N FG FEW001 BKN180 21/19 Q1012 NOSIG
RKSI 161930Z 30003KT 0300 0100W R33R/0175N R33L/0150N R34/0325D FG FEW001 BKN180 21/19 Q1012 NOSIG
RKSI 161900Z 33003KT 0600 0200W R33R/1900N R33L/1800U R34/1800U FG FEW001 BKN180 21/18 Q1012 NOSIG
RKSI 161830Z 33003KT 2300 0800W R33R/P2000N R33L/P2000N R34/1000D PRFG FEW002 BKN180 21/19 Q1011 NOSIG
RKSI 161800Z 28002KT 2300 0800W PRFG FEW002 BKN180 22/19 Q1012 NOSIG
RKSI 161730Z 30002KT 2800 BR NSC 22/19 Q1011 NOSIG
RKSI 161700Z 28003KT 360V090 2800 BR NSC 22/19 Q1011 NOSIG
RKSI 161630Z 27003KT 360V070 3000 BR NSC 22/19 Q1012 NOSIG
RKSI 161600Z 28003KT 220V320 3200 BR NSC 23/19 Q1012 NOSIG
RKSI 161530Z 33003KT 3200 BR NSC 23/19 Q1012 NOSIG
RKSI 161500Z 33001KT 3500 BR NSC 23/19 Q1012 NOSIG
RKSI 161430Z 29003KT 3200 BR NSC 23/19 Q1012 NOSIG